Latest Coastal Weather Observations for Legendre Island

IDW60701

Issued at 11:02 am WST Tuesday 21 April 2015 (issued every 10 minutes, with the page automatically refreshed every 10 minutes)

About coastal observations | Map of coastal stations | Coastal observations for WA | Marine services | Other Formats
Station Details ID: 004095 Name: LEGENDRE ISLAND Lat: -20.36 Lon: 116.84 Height: 29.0 m
Data from the previous 72 hours. | See also: Recent months for locations in Western Australia
Date/Time
WST
Temp

°C
Wind Pressure Rain
since 9am
mm
Weather Cloud Vis
km
Sea
Height
m
Swell
Dir
 
Speed
knots
Gust
knots
hPa Trend Height
m
Period
s
Dir
21/11:00am 21.0 E 33 39 1010.8 - - - - - - - - -
21/10:30am 21.4 E 34 39 1011.0 - - - - - - - - -
21/10:00am 21.4 E 30 36 1011.4 - - - - - - - - -
21/09:30am 21.2 E 30 36 1012.0 - - - - - - - - -
21/09:00am 21.2 E 30 37 1011.8 - - - - - - - - -
21/08:30am 20.7 E 31 36 1011.8 - - - - - - - - -
21/08:00am 20.6 E 30 36 1011.8 - - - - - - - - -
21/07:30am 20.6 E 30 37 1011.7 - - - - - - - - -
21/07:00am 20.5 E 31 36 1011.5 - - - - - - - - -
21/06:30am 20.8 E 34 39 1011.0 - - - - - - - - -
21/06:00am 20.7 E 33 38 1011.1 - - - - - - - - -
21/05:30am 20.9 E 33 42 1011.0 - - - - - - - - -
21/05:00am 20.3 E 36 43 1010.6 - - - - - - - - -
21/04:30am 20.0 E 33 41 1010.8 - - - - - - - - -
21/04:00am 20.3 E 33 39 1011.3 - - - - - - - - -
21/03:30am 21.1 E 34 41 1011.1 - - - - - - - - -
21/03:00am 20.4 E 35 42 1011.2 - - - - - - - - -
21/02:30am 20.7 E 35 43 1011.6 - - - - - - - - -
21/02:00am 20.4 E 34 41 1011.9 - - - - - - - - -
21/01:30am 20.6 E 33 38 1012.4 - - - - - - - - -
21/01:00am 20.9 E 34 40 1012.7 - - - - - - - - -
21/12:30am 20.9 E 34 41 1012.5 - - - - - - - - -
21/12:00am 21.1 E 35 42 1011.8 - - - - - - - - -
 
Date/Time
WST
Temp

°C
Wind Pressure Rain
since 9am
mm
Weather Cloud Vis
km
Sea
Height
m
Swell
Dir
 
Speed
knots
Gust
knots
hPa Trend Height
m
Period
s
Dir
20/11:44pm 21.0 E 35 46 1011.6 - - - - - - - - -
20/11:30pm 21.5 E 34 42 1011.7 - - - - - - - - -
20/11:00pm 21.3 E 34 41 1012.4 - - - - - - - - -
20/10:30pm 21.4 E 33 39 1012.9 - - - - - - - - -
20/10:00pm 21.1 E 33 41 1013.0 - - - - - - - - -
20/09:30pm 20.9 E 34 41 1012.8 - - - - - - - - -
20/09:10pm 20.8 E 33 43 1012.6 - - - - - - - - -
20/09:00pm 21.3 E 33 39 1013.0 - - - - - - - - -
20/08:30pm 21.6 E 31 36 1013.7 - - - - - - - - -
20/08:00pm 21.4 E 36 42 1012.2 - - - - - - - - -
20/07:30pm 20.9 ESE 31 38 1012.9 - - - - - - - - -
20/07:00pm 21.6 ESE 29 37 1012.8 - - - - - - - - -
20/06:30pm 21.4 ESE 30 37 1012.0 - - - - - - - - -
20/06:00pm 21.4 ESE 30 35 1011.9 - - - - - - - - -
20/05:38pm 21.3 ESE 26 36 1012.0 - - - - - - - - -
20/05:30pm 21.1 ESE 27 35 1012.4 - - - - - - - - -
20/05:00pm 21.9 ESE 27 34 1012.2 - - - - - - - - -
20/04:30pm 21.9 ESE 28 34 1012.2 - - - - - - - - -
20/04:00pm 22.1 E 33 39 1011.5 - - - - - - - - -
20/03:30pm 22.2 E 34 41 1010.7 - - - - - - - - -
20/03:00pm 22.2 E 33 39 1011.0 - - - - - - - - -
20/02:30pm 22.7 E 33 41 1010.9 - - - - - - - - -
20/02:00pm 22.7 E 34 40 1011.8 - - - - - - - - -
20/01:38pm 22.7 E 32 42 1011.6 - - - - - - - - -
20/01:30pm 23.0 E 33 41 1011.6 - - - - - - - - -
20/01:00pm 22.7 E 33 39 1012.1 - - - - - - - - -
20/12:30pm 22.6 E 32 38 1012.7 - - - - - - - - -
20/12:00pm 22.8 E 30 35 1013.9 - - - - - - - - -
20/11:30am 22.7 E 34 40 1013.4 - - - - - - - - -
20/11:00am 22.5 E 32 38 1014.7 - - - - - - - - -
20/10:30am 22.5 E 34 40 1014.1 - - - - - - - - -
20/10:00am 21.9 E 31 38 1014.8 - - - - - - - - -
20/09:30am 21.9 E 31 37 1015.0 - - - - - - - - -
20/09:00am 21.6 E 33 39 1014.7 - - - - - - - - -
20/08:30am 21.6 E 36 44 1013.4 - - - - - - - - -
20/08:00am 21.3 ESE 31 37 1015.3 - - - - - - - - -
20/07:30am 22.1 E 32 39 1014.6 - - - - - - - - -
20/07:00am 22.3 E 34 40 1013.9 - - - - - - - - -
20/06:30am 21.8 E 34 40 1013.4 - - - - - - - - -
20/06:00am 21.6 E 31 39 1013.6 - - - - - - - - -
20/05:30am 21.9 E 31 37 1013.6 - - - - - - - - -
20/05:00am 22.0 E 32 38 1013.2 - - - - - - - - -
20/04:30am 21.8 E 34 40 1013.3 - - - - - - - - -
20/04:00am 22.0 E 31 36 1013.9 - - - - - - - - -
20/03:30am 21.6 E 30 37 1014.1 - - - - - - - - -
20/03:00am 21.8 E 28 33 1014.5 - - - - - - - - -
20/02:30am 22.1 E 28 32 1014.8 - - - - - - - - -
20/02:00am 22.4 E 28 32 1015.0 - - - - - - - - -
20/01:30am 22.5 E 28 33 1015.4 - - - - - - - - -
20/01:00am 22.6 E 27 33 1015.6 - - - - - - - - -
20/12:30am 22.5 E 29 35 1015.2 - - - - - - - - -
20/12:00am 22.9 E 29 34 1015.4 - - - - - - - - -
 
Date/Time
WST
Temp

°C
Wind Pressure Rain
since 9am
mm
Weather Cloud Vis
km
Sea
Height
m
Swell
Dir
 
Speed
knots
Gust
knots
hPa Trend Height
m
Period
s
Dir
19/11:30pm 23.2 E 30 36 1015.1 - - - - - - - - -
19/11:00pm 23.1 E 30 36 1014.7 - - - - - - - - -
19/10:30pm 23.1 E 31 35 1014.6 - - - - - - - - -
19/10:00pm 23.0 E 33 38 1014.5 - - - - - - - - -
19/09:30pm 22.8 E 32 36 1014.6 - - - - - - - - -
19/09:00pm 23.0 ESE 30 38 1014.7 - - - - - - - - -
19/08:30pm 22.9 E 33 39 1014.6 - - - - - - - - -
19/08:00pm 22.9 E 33 40 1014.4 - - - - - - - - -
19/07:30pm 23.1 E 35 41 1014.1 - - - - - - - - -
19/07:00pm 22.7 E 34 41 1014.2 - - - - - - - - -
19/06:30pm 22.6 E 31 39 1014.4 - - - - - - - - -
19/06:00pm 22.0 ESE 30 37 1013.9 - - - - - - - - -
19/05:30pm 22.0 ESE 30 36 1014.1 - - - - - - - - -
19/05:00pm 22.0 ESE 29 37 1013.9 - - - - - - - - -
19/04:30pm 21.8 ESE 28 34 1014.0 - - - - - - - - -
19/04:00pm 21.5 ESE 25 32 1014.1 - - - - - - - - -
19/03:30pm 21.7 ESE 29 34 1014.0 - - - - - - - - -
19/03:00pm 21.8 ESE 24 28 1014.3 - - - - - - - - -
19/02:30pm 22.0 ESE 24 30 1014.1 - - - - - - - - -
19/02:00pm 21.8 ESE 23 28 1014.2 - - - - - - - - -
19/01:30pm 21.6 ESE 22 28 1014.4 - - - - - - - - -
19/01:00pm 21.9 ESE 23 29 1014.6 - - - - - - - - -
19/12:30pm 21.7 ESE 21 27 1015.2 - - - - - - - - -
19/12:00pm 21.6 ESE 23 28 1015.5 - - - - - - - - -
19/11:30am 22.0 ESE 24 29 1016.1 - - - - - - - - -
19/11:00am 21.9 E 23 27 1016.8 - - - - - - - - -
19/10:30am 22.8 E 25 29 1016.8 - - - - - - - - -
19/10:00am 22.8 E 25 29 1016.9 - - - - - - - - -
19/09:30am 23.2 E 25 32 1016.9 - - - - - - - - -
19/09:00am 22.5 E 26 30 1016.7 - - - - - - - - -
19/08:30am 22.3 E 22 29 1016.9 - - - - - - - - -
19/08:00am 22.1 E 20 23 1016.8 - - - - - - - - -
19/07:30am 22.3 E 18 21 1016.6 - - - - - - - - -
19/07:00am 21.6 E 19 21 1016.3 - - - - - - - - -
19/06:30am 20.4 SE 14 18 1015.8 - - - - - - - - -
19/06:00am 20.3 SE 17 21 1015.0 - - - - - - - - -
19/05:30am 20.7 ESE 19 24 1014.0 - - - - - - - - -
19/05:00am - ESE 21 26 1013.0 - - - - - - - - -
19/04:30am - ESE 18 23 1013.1 - - - - - - - - -
19/04:00am - ESE 22 27 1013.1 - - - - - - - - -
19/03:30am - SE 22 28 1012.8 - - - - - - - - -
19/03:00am - ESE 21 27 1013.5 - - - - - - - - -
19/02:30am - ESE 24 30 1013.8 - - - - - - - - -
19/02:00am 22.4 ESE 24 30 1013.9 - - - - - - - - -
19/01:30am 22.8 ESE 24 29 1013.8 - - - - - - - - -
19/01:00am 22.9 ESE 23 30 1014.1 - - - - - - - - -
19/12:30am 22.8 SE 23 29 1014.4 - - - - - - - - -
19/12:00am 22.7 SE 22 29 1014.3 - - - - - - - - -
 
Date/Time
WST
Temp

°C
Wind Pressure Rain
since 9am
mm
Weather Cloud Vis
km
Sea
Height
m
Swell
Dir
 
Speed
knots
Gust
knots
hPa Trend Height
m
Period
s
Dir
18/11:30pm 22.7 SE 23 30 1014.5 - - - - - - - - -
18/11:00pm - SE 22 28 1014.8 - - - - - - - - -
18/10:30pm 22.8 ESE 22 28 1015.0 - - - - - - - - -
18/10:00pm 22.8 SE 21 28 1015.1 - - - - - - - - -
18/09:30pm 23.1 SE 21 26 1015.3 - - - - - - - - -
18/09:00pm 23.1 SE 16 23 1015.4 - - - - - - - - -
18/08:30pm - SE 18 23 1015.0 - - - - - - - - -
18/08:00pm 24.4 SE 17 21 1014.9 - - - - - - - - -
18/07:30pm 24.5 SE 14 19 1014.3 - - - - - - - - -
18/07:00pm 24.1 SE 14 17 1014.1 - - - - - - - - -
18/06:30pm 24.0 SE 13 17 1013.5 - - - - - - - - -
18/06:00pm 24.2 SE 14 17 1013.2 - - - - - - - - -
18/05:30pm 23.9 SE 14 17 1012.9 - - - - - - - - -
18/05:00pm 24.3 SE 14 17 1012.7 - - - - - - - - -
18/04:30pm 24.3 SE 14 17 1012.5 - - - - - - - - -
18/04:00pm 24.3 SE 12 15 1012.4 - - - - - - - - -
18/03:30pm 25.3 ESE 13 17 1012.2 - - - - - - - - -
18/03:00pm 27.3 ESE 16 18 1012.4 - - - - - - - - -
18/02:30pm 27.7 E 16 19 1012.4 - - - - - - - - -
18/02:00pm 27.6 E 16 20 1012.4 - - - - - - - - -
18/01:30pm 26.9 ESE 16 20 1012.7 - - - - - - - - -
18/01:00pm 27.1 E 17 20 1013.0 - - - - - - - - -
18/12:30pm 27.5 E 17 21 1013.3 - - - - - - - - -
18/12:00pm - ESE 18 22 1013.6 - - - - - - - - -
18/11:30am 27.1 E 18 21 1014.0 - - - - - - - - -

Other Formats:

Comma delimited format used in spreadsheet applications
http://www.bom.gov.au/fwo/IDW60701/IDW60701.94307.axf

JavaScript Object Notation format (JSON) in row-major order
http://www.bom.gov.au/fwo/IDW60701/IDW60701.94307.json